createdAt,value
2024-03-06T00:00:12.835Z,2.40
2024-03-06T00:02:42.921Z,1.90
2024-03-06T00:05:10.229Z,2.17
2024-03-06T00:07:37.569Z,1.85
2024-03-06T00:10:05.669Z,1.75
2024-03-06T00:12:35.863Z,1.80
2024-03-06T00:15:03.777Z,1.95
2024-03-06T00:17:36.836Z,2.05
2024-03-06T00:20:05.911Z,1.90
2024-03-06T00:22:32.913Z,2.10
2024-03-06T00:25:03.476Z,2.08
2024-03-06T00:27:30.436Z,1.90
2024-03-06T00:30:01.569Z,2.10
2024-03-06T00:32:29.205Z,2.10
2024-03-06T00:34:56.419Z,2.30
2024-03-06T00:37:26.248Z,2.20
2024-03-06T00:39:53.206Z,2.30
2024-03-06T00:42:23.274Z,1.90
2024-03-06T00:44:53.389Z,2.50
2024-03-06T00:47:23.316Z,2.25
2024-03-06T00:49:53.334Z,1.90
2024-03-06T00:52:20.284Z,2.10
2024-03-06T00:54:50.307Z,2.30
2024-03-06T00:57:23.303Z,2.10
2024-03-06T00:59:50.280Z,2.40
2024-03-06T01:02:23.845Z,2.15
2024-03-06T01:04:57.043Z,1.97
2024-03-06T01:07:26.956Z,2.60
2024-03-06T01:09:57.767Z,2.45
2024-03-06T01:12:24.704Z,2.30
2024-03-06T01:14:57.535Z,2.40
2024-03-06T01:17:30.779Z,2.30
2024-03-06T01:20:01.994Z,2.15
2024-03-06T01:22:28.951Z,2.13
2024-03-06T01:24:59.958Z,2.08
2024-03-06T01:27:32.763Z,2.30
2024-03-06T01:30:02.113Z,2.28
2024-03-06T01:32:33.932Z,2.20
2024-03-06T01:35:16.127Z,2.25
2024-03-06T01:37:49.366Z,2.28
2024-03-06T01:40:19.476Z,2.30
2024-03-06T01:42:49.356Z,2.70
2024-03-06T01:45:25.505Z,2.35
2024-03-06T01:47:53.168Z,2.40
2024-03-06T01:50:23.208Z,2.30
2024-03-06T01:52:53.095Z,2.37
2024-03-06T01:55:23.069Z,2.33
2024-03-06T01:57:53.387Z,2.42
2024-03-06T02:00:21.382Z,2.42
2024-03-06T02:02:54.861Z,2.23
2024-03-06T02:05:22.427Z,2.08
2024-03-06T02:07:54.440Z,2.15
2024-03-06T02:10:24.336Z,1.85
2024-03-06T02:12:58.388Z,1.92
2024-03-06T02:15:28.558Z,2.30
2024-03-06T02:18:05.437Z,2.25
2024-03-06T02:20:34.646Z,2.05
2024-03-06T02:23:01.708Z,2.17
2024-03-06T02:25:28.775Z,2.58
2024-03-06T02:28:01.678Z,1.90
2024-03-06T02:30:30.836Z,2.20
2024-03-06T02:33:04.594Z,2.28
2024-03-06T02:35:32.965Z,2.10
2024-03-06T02:38:05.277Z,2.07
2024-03-06T02:40:32.289Z,2.20
2024-03-06T02:43:07.976Z,2.13
2024-03-06T02:45:34.935Z,2.20
2024-03-06T02:48:03.548Z,2.20
2024-03-06T02:50:30.476Z,2.08
2024-03-06T02:53:00.446Z,2.08
2024-03-06T02:55:35.990Z,2.13
2024-03-06T02:58:03.392Z,2.42
2024-03-06T03:00:31.876Z,2.50
2024-03-06T03:03:04.092Z,2.38
2024-03-06T03:05:34.084Z,2.60
2024-03-06T03:08:07.532Z,2.25
2024-03-06T03:10:34.979Z,2.53
2024-03-06T03:13:05.363Z,2.25
2024-03-06T03:15:35.348Z,2.53
2024-03-06T03:18:02.361Z,1.90
2024-03-06T03:20:31.296Z,2.50
2024-03-06T03:23:01.407Z,1.90
2024-03-06T03:25:31.603Z,2.22
2024-03-06T03:27:59.384Z,2.35
2024-03-06T03:30:38.083Z,1.95
2024-03-06T03:33:11.123Z,2.40
2024-03-06T03:35:41.320Z,2.13
2024-03-06T03:38:08.331Z,2.30
2024-03-06T03:40:53.689Z,2.20
2024-03-06T03:43:29.610Z,2.25
2024-03-06T03:45:56.845Z,2.53
2024-03-06T03:48:24.028Z,2.25
2024-03-06T03:50:51.284Z,2.30
2024-03-06T03:53:18.756Z,2.10
2024-03-06T03:55:48.874Z,2.15
2024-03-06T03:58:16.778Z,2.42
2024-03-06T04:00:44.648Z,2.40
2024-03-06T04:03:11.874Z,2.08
2024-03-06T04:05:42.013Z,2.10
2024-03-06T04:08:12.079Z,2.60
2024-03-06T04:10:45.477Z,2.20
2024-03-06T04:13:12.912Z,2.70
2024-03-06T04:15:43.642Z,2.23
2024-03-06T04:18:13.842Z,1.90
2024-03-06T04:20:41.068Z,2.50
2024-03-06T04:23:08.266Z,2.35
2024-03-06T04:25:41.706Z,2.60
2024-03-06T04:28:08.980Z,2.08
2024-03-06T04:30:36.203Z,2.70
2024-03-06T04:33:04.886Z,2.30
2024-03-06T04:35:41.361Z,2.58
2024-03-06T04:38:11.604Z,2.47
2024-03-06T04:40:41.994Z,2.38
2024-03-06T04:43:13.676Z,2.40
2024-03-06T04:45:40.900Z,2.13
2024-03-06T04:48:11.551Z,2.25
2024-03-06T04:50:45.367Z,2.40
2024-03-06T04:53:12.734Z,2.47
2024-03-06T04:55:39.981Z,2.40
2024-03-06T04:58:10.457Z,2.13
2024-03-06T05:00:43.470Z,2.60
2024-03-06T05:59:12.760Z,2.20
2024-03-06T06:01:40.098Z,2.17
2024-03-06T06:04:10.516Z,2.60
2024-03-06T06:06:38.017Z,2.42
2024-03-06T06:09:06.004Z,2.65
2024-03-06T06:11:36.402Z,2.78
2024-03-06T06:14:06.713Z,2.72
2024-03-06T06:16:38.158Z,2.37
2024-03-06T06:19:06.000Z,2.58
2024-03-06T06:21:36.417Z,2.80
2024-03-06T06:24:08.480Z,2.40
2024-03-06T06:26:38.166Z,3.10
2024-03-06T06:29:08.643Z,2.72
2024-03-06T06:31:44.929Z,2.80
2024-03-06T06:34:12.179Z,2.72
2024-03-06T06:36:41.336Z,2.90
2024-03-06T06:39:12.783Z,2.88
2024-03-06T06:41:40.657Z,2.53
2024-03-06T06:44:07.644Z,2.90
2024-03-06T06:46:34.621Z,2.83
2024-03-06T06:49:07.351Z,2.70
2024-03-06T06:51:34.257Z,2.70
2024-03-06T06:54:01.298Z,3.10
2024-03-06T06:56:33.062Z,2.80
2024-03-06T06:59:03.157Z,3.13
2024-03-06T07:01:33.625Z,3.30
2024-03-06T07:04:00.583Z,2.80
2024-03-06T07:06:33.323Z,2.88
2024-03-06T07:09:00.188Z,3.13
2024-03-06T07:11:27.200Z,3.30
2024-03-06T07:13:57.614Z,3.40
2024-03-06T07:16:26.782Z,2.47
2024-03-06T07:19:05.830Z,2.75
2024-03-06T07:21:32.733Z,2.75
2024-03-06T07:24:00.684Z,2.85
2024-03-06T07:26:30.890Z,2.72
2024-03-06T07:28:59.407Z,2.88
2024-03-06T07:31:26.628Z,2.80
2024-03-06T07:33:59.715Z,2.75
2024-03-06T07:36:32.759Z,2.80
2024-03-06T07:38:59.650Z,3.20
2024-03-06T07:41:26.591Z,2.88
2024-03-06T07:43:56.373Z,3.33
2024-03-06T07:46:41.351Z,2.88
2024-03-06T07:49:10.672Z,2.92
2024-03-06T07:51:46.905Z,4.10
2024-03-06T07:54:19.785Z,3.00
2024-03-06T07:56:57.349Z,2.90
2024-03-06T07:59:24.331Z,3.00
2024-03-06T08:01:52.887Z,5.50
2024-03-06T08:04:19.805Z,3.75
2024-03-06T08:06:47.130Z,4.15
2024-03-06T08:09:14.504Z,5.47
2024-03-06T08:11:49.595Z,3.53
2024-03-06T08:14:22.167Z,7.03
2024-03-06T08:16:53.596Z,4.22
2024-03-06T08:19:27.042Z,4.45
2024-03-06T08:21:53.985Z,3.17
2024-03-06T08:24:24.555Z,3.10
2024-03-06T08:26:51.575Z,3.65
2024-03-06T08:29:28.046Z,3.67
2024-03-06T08:31:58.476Z,3.75
2024-03-06T08:34:26.147Z,4.45
2024-03-06T08:36:58.628Z,4.32
2024-03-06T08:39:25.555Z,11.20
2024-03-06T08:42:12.788Z,17.50
2024-03-06T08:44:39.767Z,12.50
2024-03-06T08:47:10.122Z,4.53
2024-03-06T08:49:40.539Z,9.73
2024-03-06T08:52:09.400Z,11.20
2024-03-06T08:54:41.955Z,15.90
2024-03-06T08:57:09.214Z,5.50
2024-03-06T08:59:36.250Z,9.53
2024-03-06T09:02:15.046Z,13.90
2024-03-06T09:04:43.019Z,14.20
2024-03-06T09:07:14.577Z,6.20
2024-03-06T09:09:44.491Z,12.25
2024-03-06T09:12:12.094Z,14.05
2024-03-06T09:14:39.936Z,6.40
2024-03-06T09:17:09.817Z,14.98
2024-03-06T09:19:38.188Z,16.15
2024-03-06T09:22:05.893Z,6.43
2024-03-06T09:24:35.967Z,7.18
2024-03-06T09:27:05.987Z,13.05
2024-03-06T09:29:36.394Z,17.90
2024-03-06T09:32:04.006Z,6.90
2024-03-06T09:34:34.005Z,9.93
2024-03-06T09:37:01.263Z,6.67
2024-03-06T09:39:28.935Z,4.82
2024-03-06T09:42:02.390Z,10.98
2024-03-06T09:44:32.304Z,14.50
2024-03-06T09:47:10.976Z,16.48
2024-03-06T09:49:41.616Z,9.55
2024-03-06T09:52:14.525Z,12.27
2024-03-06T09:54:44.641Z,6.03
2024-03-06T09:57:13.410Z,8.27
2024-03-06T09:59:46.627Z,11.30
2024-03-06T10:02:35.809Z,8.23
2024-03-06T10:05:06.274Z,7.80
2024-03-06T10:07:33.247Z,7.45
2024-03-06T10:10:10.564Z,10.40
2024-03-06T10:12:37.626Z,7.72
2024-03-06T10:15:05.866Z,8.63
2024-03-06T10:17:32.942Z,5.55
2024-03-06T10:20:17.161Z,5.10
2024-03-06T10:22:44.485Z,6.82
2024-03-06T10:25:21.680Z,8.43
2024-03-06T10:28:05.853Z,4.07
2024-03-06T10:30:33.293Z,6.53
2024-03-06T10:33:10.778Z,6.53
2024-03-06T10:35:38.888Z,3.45
2024-03-06T10:38:08.443Z,6.47
2024-03-06T10:40:37.221Z,4.60
2024-03-06T10:43:06.411Z,2.78
2024-03-06T10:45:48.683Z,3.40
2024-03-06T10:48:17.649Z,12.00
2024-03-06T10:50:46.866Z,5.75
2024-03-06T10:53:20.158Z,6.43
2024-03-06T10:55:57.382Z,5.63
2024-03-06T10:58:25.920Z,6.70
2024-03-06T11:00:58.393Z,4.22
2024-03-06T11:03:31.090Z,6.73
2024-03-06T11:06:07.727Z,4.10
2024-03-06T11:08:35.260Z,4.53
2024-03-06T11:11:23.167Z,3.78
2024-03-06T11:13:51.486Z,5.95
2024-03-06T11:17:02.851Z,7.28
2024-03-06T11:19:30.520Z,5.35
2024-03-06T11:21:58.001Z,7.60
2024-03-06T11:24:32.646Z,2.92
2024-03-06T11:27:07.896Z,4.15
2024-03-06T11:30:14.097Z,7.40
2024-03-06T11:33:13.161Z,4.87
2024-03-06T11:35:45.005Z,7.07
2024-03-06T11:38:12.075Z,8.13
2024-03-06T11:40:45.020Z,6.13
2024-03-06T11:43:42.609Z,6.00
2024-03-06T11:46:13.112Z,6.57
2024-03-06T11:48:40.670Z,6.32
2024-03-06T11:51:07.626Z,2.53
2024-03-06T11:53:35.420Z,8.90
2024-03-06T11:56:02.488Z,8.25
2024-03-06T11:58:32.409Z,13.50
2024-03-06T12:01:00.418Z,5.17
2024-03-06T12:03:27.705Z,4.57
2024-03-06T12:05:57.560Z,3.17
2024-03-06T12:08:24.683Z,4.20
2024-03-06T12:10:58.550Z,2.60
2024-03-06T12:13:25.521Z,5.03
2024-03-06T12:15:58.197Z,6.60
2024-03-06T12:18:25.961Z,6.05
2024-03-06T12:20:56.025Z,2.27
2024-03-06T12:23:26.524Z,6.05
2024-03-06T12:26:09.448Z,5.27
2024-03-06T12:28:36.553Z,5.23
2024-03-06T12:31:13.611Z,6.07
2024-03-06T12:33:57.939Z,3.60
2024-03-06T12:36:26.647Z,2.55
2024-03-06T12:39:04.532Z,4.32
2024-03-06T12:41:36.857Z,1.98
2024-03-06T12:44:04.209Z,4.93
2024-03-06T12:46:31.890Z,4.80
2024-03-06T12:48:58.886Z,3.80
2024-03-06T12:51:26.003Z,5.25
2024-03-06T12:53:53.411Z,8.00
2024-03-06T12:56:22.784Z,5.32
2024-03-06T12:58:49.735Z,2.90
2024-03-06T13:01:16.744Z,4.07
2024-03-06T13:03:44.402Z,5.10
2024-03-06T13:06:17.420Z,4.72
2024-03-06T13:08:44.461Z,5.10
2024-03-06T13:11:16.344Z,4.97
2024-03-06T13:13:43.314Z,4.38
2024-03-06T13:16:14.116Z,2.90
2024-03-06T13:18:41.349Z,6.60
2024-03-06T13:21:08.978Z,4.20
2024-03-06T13:23:35.953Z,2.95
2024-03-06T13:26:03.403Z,2.97
2024-03-06T13:28:33.331Z,4.35
2024-03-06T13:31:03.481Z,4.03
2024-03-06T13:33:30.448Z,2.33
2024-03-06T13:35:57.593Z,2.80
2024-03-06T13:38:31.418Z,4.00
2024-03-06T13:40:58.460Z,3.80
2024-03-06T13:43:32.065Z,4.28
2024-03-06T13:45:59.220Z,4.78
2024-03-06T13:48:26.198Z,5.97
2024-03-06T13:51:02.192Z,5.43
2024-03-06T13:53:29.771Z,1.67
2024-03-06T13:55:59.981Z,2.35
2024-03-06T13:58:32.612Z,2.00
2024-03-06T14:01:02.784Z,4.90
2024-03-06T14:03:29.818Z,5.18
2024-03-06T14:06:02.652Z,2.97
2024-03-06T14:08:36.252Z,3.90
2024-03-06T14:11:05.797Z,4.90
2024-03-06T14:13:33.085Z,4.65
2024-03-06T14:16:03.742Z,5.57
2024-03-06T14:18:34.576Z,4.88
2024-03-06T14:21:07.372Z,3.97
2024-03-06T14:23:35.502Z,4.63
2024-03-06T14:26:05.379Z,3.47
2024-03-06T14:28:32.335Z,4.28
2024-03-06T14:31:02.276Z,2.15
2024-03-06T14:33:32.114Z,5.13
2024-03-06T14:35:59.128Z,6.03
2024-03-06T14:38:26.149Z,7.17
2024-03-06T14:41:06.588Z,4.93
2024-03-06T14:43:34.632Z,4.88
2024-03-06T14:46:10.669Z,6.90
2024-03-06T14:48:37.636Z,3.50
2024-03-06T14:51:05.257Z,5.28
2024-03-06T14:53:32.329Z,3.85
2024-03-06T14:56:03.972Z,3.67
2024-03-06T14:58:36.815Z,3.57
2024-03-06T15:01:04.017Z,4.95
2024-03-06T15:03:30.951Z,5.07
2024-03-06T15:06:04.270Z,4.18
2024-03-06T15:08:35.100Z,2.85
2024-03-06T15:11:15.436Z,3.88
2024-03-06T15:13:42.510Z,1.50
2024-03-06T15:16:13.582Z,3.10
2024-03-06T15:18:41.308Z,2.38
2024-03-06T15:21:14.100Z,3.88
2024-03-06T15:23:41.172Z,1.92
2024-03-06T15:26:11.417Z,3.20
2024-03-06T15:28:39.009Z,4.32
2024-03-06T15:31:05.937Z,4.20
2024-03-06T15:33:33.987Z,2.65
2024-03-06T15:36:01.560Z,7.45
2024-03-06T15:38:28.547Z,6.18
2024-03-06T15:41:04.933Z,8.05
2024-03-06T15:43:38.425Z,6.53
2024-03-06T15:47:25.349Z,4.32
2024-03-06T15:49:59.770Z,9.33
2024-03-06T15:52:29.923Z,14.75
2024-03-06T15:55:02.069Z,13.35
2024-03-06T15:57:32.406Z,7.73
2024-03-06T16:00:03.250Z,4.45
2024-03-06T16:02:30.599Z,4.40
2024-03-06T16:05:08.867Z,8.10
2024-03-06T16:07:47.684Z,5.70
2024-03-06T16:10:32.103Z,9.50
2024-03-06T16:13:08.622Z,4.95
2024-03-06T16:15:39.445Z,8.15
2024-03-06T16:18:06.999Z,10.05
2024-03-06T16:20:43.521Z,9.07
2024-03-06T16:23:13.426Z,6.72
2024-03-06T16:25:40.395Z,10.05
2024-03-06T16:28:10.043Z,4.38
2024-03-06T16:30:36.989Z,5.90
2024-03-06T16:33:07.712Z,6.32
2024-03-06T16:35:34.754Z,7.07
2024-03-06T16:38:04.955Z,11.20
2024-03-06T16:40:37.828Z,8.90
2024-03-06T16:43:04.965Z,8.60
2024-03-06T16:45:34.746Z,7.90
2024-03-06T16:48:09.253Z,9.27
2024-03-06T16:50:46.883Z,3.70
2024-03-06T16:53:17.929Z,6.87
2024-03-06T16:55:47.970Z,3.00
2024-03-06T16:58:21.529Z,2.50
2024-03-06T17:00:48.623Z,6.40
2024-03-06T17:03:15.641Z,3.47
2024-03-06T17:05:45.805Z,2.53
2024-03-06T17:08:16.946Z,2.63
2024-03-06T17:10:44.669Z,2.90
2024-03-06T17:13:19.023Z,2.10
2024-03-06T17:15:46.896Z,1.88
2024-03-06T17:18:14.069Z,2.67
2024-03-06T17:20:44.950Z,4.22
2024-03-06T17:23:11.901Z,5.25
2024-03-06T17:25:41.402Z,5.85
2024-03-06T17:28:14.079Z,4.17
2024-03-06T17:30:41.832Z,2.03
2024-03-06T17:33:08.798Z,3.42
2024-03-06T17:35:47.393Z,2.20
2024-03-06T17:38:17.787Z,2.85
2024-03-06T17:40:47.981Z,3.73
2024-03-06T17:43:15.330Z,2.20
2024-03-06T17:45:44.056Z,2.78
2024-03-06T17:48:16.717Z,3.63
2024-03-06T17:50:56.419Z,4.50
2024-03-06T17:53:29.667Z,2.72
2024-03-06T17:56:00.025Z,5.88
2024-03-06T17:58:26.977Z,4.50
2024-03-06T18:00:53.984Z,6.85
2024-03-06T18:03:25.423Z,2.72
2024-03-06T18:05:59.564Z,5.55
2024-03-06T18:08:32.436Z,2.72
2024-03-06T18:10:59.469Z,5.70
2024-03-06T18:13:27.669Z,5.05
2024-03-06T18:15:54.641Z,4.80
2024-03-06T18:18:24.453Z,6.95
2024-03-06T18:21:01.019Z,5.72
2024-03-06T18:23:33.944Z,5.18
2024-03-06T18:26:01.013Z,4.93
2024-03-06T18:28:36.880Z,8.63
2024-03-06T18:31:13.088Z,7.60
2024-03-06T18:33:42.336Z,6.35
2024-03-06T18:36:12.501Z,10.85
2024-03-06T18:38:39.493Z,9.93
2024-03-06T18:41:24.867Z,7.60
2024-03-06T18:43:54.866Z,8.23
2024-03-06T18:46:24.653Z,5.75
2024-03-06T18:48:54.375Z,5.32
2024-03-06T18:51:27.986Z,3.40
2024-03-06T18:53:57.740Z,4.57
2024-03-06T18:56:27.660Z,8.73
2024-03-06T18:58:57.514Z,7.93
2024-03-06T19:01:27.288Z,4.75
2024-03-06T19:03:57.605Z,8.90
2024-03-06T19:06:24.536Z,7.57
2024-03-06T19:08:59.655Z,10.25
2024-03-06T19:11:26.973Z,10.13
2024-03-06T19:14:02.987Z,4.77
2024-03-06T19:16:33.053Z,9.33
2024-03-06T19:19:01.426Z,8.93
2024-03-06T19:21:28.632Z,8.23
2024-03-06T19:24:04.564Z,9.67
2024-03-06T19:26:33.339Z,4.78
2024-03-06T19:29:04.879Z,7.53
2024-03-06T19:31:36.350Z,8.07
2024-03-06T19:34:03.386Z,9.43
2024-03-06T19:36:39.481Z,9.55
2024-03-06T19:39:13.841Z,7.82
2024-03-06T19:41:40.932Z,5.73
2024-03-06T19:44:08.609Z,8.43
2024-03-06T19:46:38.383Z,8.48
2024-03-06T19:49:05.571Z,2.60
2024-03-06T19:51:32.951Z,6.60
2024-03-06T19:54:04.144Z,7.75
2024-03-06T19:56:40.501Z,6.53
2024-03-06T19:59:10.508Z,8.48
2024-03-06T20:01:43.682Z,3.50
2024-03-06T20:04:13.541Z,5.67
2024-03-06T20:06:42.896Z,7.20
2024-03-06T20:09:14.098Z,7.72
2024-03-06T20:11:45.613Z,6.70
2024-03-06T20:14:15.339Z,8.45
2024-03-06T20:16:42.321Z,8.30
2024-03-06T20:19:12.461Z,8.60
2024-03-06T20:21:43.671Z,3.08
2024-03-06T20:24:13.980Z,5.73
2024-03-06T20:26:41.623Z,5.93
2024-03-06T20:29:15.794Z,3.70
2024-03-06T20:31:45.623Z,3.05
2024-03-06T20:34:15.022Z,6.20
2024-03-06T20:36:46.105Z,10.13
2024-03-06T20:39:16.352Z,4.43
2024-03-06T20:41:43.801Z,5.15
2024-03-06T20:44:14.591Z,6.82
2024-03-06T20:46:45.086Z,4.57
2024-03-06T20:49:21.753Z,7.00
2024-03-06T20:51:48.708Z,3.42
2024-03-06T20:54:16.252Z,3.50
2024-03-06T20:56:43.613Z,6.00
2024-03-06T20:59:11.305Z,2.55
2024-03-06T21:01:38.291Z,2.40
2024-03-06T21:04:06.156Z,5.57
2024-03-06T21:06:33.082Z,2.83
2024-03-06T21:09:07.853Z,4.35
2024-03-06T21:11:34.831Z,3.83
2024-03-06T21:14:07.990Z,5.25
2024-03-06T21:16:39.333Z,2.63
2024-03-06T21:19:07.001Z,4.20
2024-03-06T21:21:33.915Z,2.95
2024-03-06T21:24:04.176Z,4.45
2024-03-06T21:26:34.064Z,3.10
2024-03-06T21:29:01.701Z,2.45
2024-03-06T21:31:34.659Z,2.50
2024-03-06T21:34:05.546Z,2.30
2024-03-06T21:36:33.197Z,2.63
2024-03-06T21:39:07.814Z,2.40
2024-03-06T21:41:36.467Z,2.50
2024-03-06T21:44:06.490Z,2.50
2024-03-06T21:46:33.498Z,2.97
2024-03-06T21:49:07.201Z,2.42
2024-03-06T21:51:34.829Z,2.50
2024-03-06T21:54:01.750Z,2.40
2024-03-06T21:56:31.505Z,2.70
2024-03-06T21:58:58.463Z,2.47
2024-03-06T22:01:28.987Z,2.53
2024-03-06T22:03:55.909Z,2.72
2024-03-06T22:06:48.755Z,2.83
2024-03-06T22:09:16.416Z,2.70
2024-03-06T22:11:43.871Z,2.75
2024-03-06T22:14:13.997Z,2.63
2024-03-06T22:16:41.806Z,2.85
2024-03-06T22:19:08.727Z,2.73
2024-03-06T22:21:44.997Z,2.92
2024-03-06T22:24:15.184Z,2.70
2024-03-06T22:26:42.179Z,2.85
2024-03-06T22:29:12.087Z,3.10
2024-03-06T22:31:39.126Z,2.87
2024-03-06T22:34:08.898Z,2.70
2024-03-06T22:36:36.006Z,3.10
2024-03-06T22:39:06.119Z,2.75
2024-03-06T22:41:42.622Z,2.90
2024-03-06T22:44:09.612Z,2.70
2024-03-06T22:46:47.706Z,2.70
2024-03-06T22:49:21.108Z,2.63
2024-03-06T22:51:48.515Z,2.70
2024-03-06T22:54:16.574Z,3.03
2024-03-06T22:56:44.186Z,3.15
2024-03-06T22:59:15.019Z,2.60
2024-03-06T23:01:44.078Z,2.88
2024-03-06T23:04:14.036Z,2.50
2024-03-06T23:06:43.205Z,2.92
2024-03-06T23:09:13.814Z,3.20
2024-03-06T23:11:41.379Z,3.00
2024-03-06T23:14:11.847Z,2.72
2024-03-06T23:16:41.926Z,3.00
2024-03-06T23:19:09.220Z,2.85
2024-03-06T23:21:39.258Z,2.72
2024-03-06T23:24:08.944Z,3.00
2024-03-06T23:26:43.267Z,2.80
2024-03-06T23:29:17.016Z,3.00
2024-03-06T23:31:44.423Z,3.00
2024-03-06T23:34:14.172Z,3.17
2024-03-06T23:36:41.100Z,3.00
2024-03-06T23:39:11.087Z,3.03
2024-03-06T23:41:38.281Z,3.15
2024-03-06T23:44:14.502Z,3.00
2024-03-06T23:46:42.136Z,3.55
2024-03-06T23:49:09.072Z,3.10
2024-03-06T23:51:36.118Z,3.40
2024-03-06T23:54:08.111Z,2.90
2024-03-06T23:56:35.104Z,3.85
2024-03-06T23:59:04.920Z,2.90
